KPTS/PTS METAR and TAF weather

Enter ICAO airport designator
Station Type Date Time Source
KPTS METAR 2020/01/21 09:35 UTC NOAA

KPTS 210935Z AUTO 06004KT 10SM SCT008 SCT012 M11/M13 A3060 RMK AO2 T11081127


Station Type Date Time Source
KPTS Decoded METAR 2020/01/21 09:35 UTC NOAA

Station name not available
Jan 21, 2020 - 04:35 AM EST / 2020.01.21 0935 UTC
Wind: from the ENE (060 degrees) at 5 MPH (4 KT):0
Visibility: 10 mile(s):0
Sky conditions: partly cloudy
Temperature: 12.6 F (-10.8 C)
Windchill: 5 F (-15 C):1
Dew Point: 9.1 F (-12.7 C)
Relative Humidity: 85%
Pressure (altimeter): 30.6 in. Hg (1036 hPa)
ob: KPTS 210935Z AUTO 06004KT 10SM SCT008 SCT012 M11/M13 A3060 RMK AO2 T11081127
cycle: 9

Station Type Date Time Source
KPTS TAF UTC NOAA

Error!

Example: see airport list